WZZ4NA EPWA-UGKO
Flight info
| Callsign | WZZ4NA |
|---|---|
| Flight time | 2h 51m |
| Altitude | 35000 |
| Route | EVINA7G EVINA DCT KOTEK DCT KENIN DCT DOKUD DCT REVDA DCT UDROS UM859 KARDE UN644 ROLIN DCT MAQQO MAQQO1A |
| Aircraft | A21N/M-SDE1E2E3FGIJ1J4RWXY/LB1 |
Departure
| Time | 2026-04-26 09:18 |
|---|---|
| Airport | Warsaw Chopin Airport (EPWA) |
Arrival
| Time | 2026-04-26 12:09 |
|---|---|
| Airport | David the Builder Kutaisi International Airport (UGKO) |
| Time | Latitude | Longitude | Altitude | Speed | Heading |
|---|---|---|---|---|---|
| 2026-04-26 08:48 | 52.17617 | 20.96328 | 333 ft | 0 kts | 242° |
| 2026-04-26 09:10 | 52.17613 | 20.96315 | 333 ft | 3 kts | 242° |
| 2026-04-26 09:11 | 52.17594 | 20.96259 | 334 ft | 5 kts | 238° |
| 2026-04-26 09:11 | 52.17559 | 20.96255 | 334 ft | 8 kts | 159° |
| 2026-04-26 09:11 | 52.17478 | 20.96321 | 333 ft | 15 kts | 151° |
| 2026-04-26 09:11 | 52.17385 | 20.96403 | 334 ft | 15 kts | 151° |
| 2026-04-26 09:12 | 52.17293 | 20.96486 | 333 ft | 15 kts | 151° |
| 2026-04-26 09:12 | 52.17197 | 20.96570 | 333 ft | 15 kts | 153° |
| 2026-04-26 09:12 | 52.17097 | 20.96654 | 331 ft | 16 kts | 152° |
| 2026-04-26 09:12 | 52.16991 | 20.96747 | 329 ft | 17 kts | 152° |
| 2026-04-26 09:13 | 52.16885 | 20.96839 | 329 ft | 17 kts | 152° |
| 2026-04-26 09:13 | 52.16783 | 20.96928 | 331 ft | 15 kts | 152° |
| 2026-04-26 09:13 | 52.16693 | 20.97008 | 333 ft | 12 kts | 149° |
| 2026-04-26 09:13 | 52.16645 | 20.97120 | 335 ft | 11 kts | 115° |
| 2026-04-26 09:14 | 52.16610 | 20.97245 | 336 ft | 14 kts | 115° |
| 2026-04-26 09:14 | 52.16562 | 20.97417 | 336 ft | 17 kts | 115° |
| 2026-04-26 09:14 | 52.16510 | 20.97601 | 336 ft | 17 kts | 115° |
| 2026-04-26 09:14 | 52.16460 | 20.97786 | 335 ft | 18 kts | 110° |
| 2026-04-26 09:15 | 52.16405 | 20.97969 | 334 ft | 18 kts | 113° |
| 2026-04-26 09:15 | 52.16357 | 20.98152 | 336 ft | 16 kts | 114° |
| 2026-04-26 09:15 | 52.16307 | 20.98316 | 335 ft | 12 kts | 120° |
| 2026-04-26 09:15 | 52.16239 | 20.98332 | 334 ft | 10 kts | 203° |
| 2026-04-26 09:16 | 52.16171 | 20.98274 | 333 ft | 11 kts | 209° |
| 2026-04-26 09:16 | 52.16159 | 20.98186 | 333 ft | 5 kts | 295° |
| 2026-04-26 09:16 | 52.16160 | 20.98183 | 333 ft | 0 kts | 295° |
| 2026-04-26 09:17 | 52.16167 | 20.98159 | 333 ft | 12 kts | 295° |
| 2026-04-26 09:17 | 52.16307 | 20.97662 | 333 ft | 82 kts | 294° |
| 2026-04-26 09:17 | 52.16630 | 20.96510 | 333 ft | 139 kts | 295° |
| 2026-04-26 09:17 | 52.17079 | 20.94905 | 559 ft | 165 kts | 295° |
| 2026-04-26 09:18 | 52.17559 | 20.93211 | 1194 ft | 166 kts | 296° |
| 2026-04-26 09:18 | 52.18025 | 20.91534 | 1890 ft | 165 kts | 298° |
| 2026-04-26 09:18 | 52.18428 | 20.89681 | 2232 ft | 186 kts | 281° |
| 2026-04-26 09:18 | 52.18171 | 20.87460 | 2502 ft | 215 kts | 259° |
| 2026-04-26 09:19 | 52.17760 | 20.85061 | 2861 ft | 230 kts | 263° |
| 2026-04-26 09:19 | 52.17379 | 20.82412 | 3323 ft | 244 kts | 263° |
| 2026-04-26 09:19 | 52.16989 | 20.79761 | 4037 ft | 247 kts | 263° |
| 2026-04-26 09:19 | 52.16583 | 20.77032 | 4787 ft | 249 kts | 263° |
| 2026-04-26 09:20 | 52.16177 | 20.74303 | 5506 ft | 251 kts | 263° |
| 2026-04-26 09:20 | 52.15595 | 20.71595 | 6163 ft | 263 kts | 247° |
| 2026-04-26 09:20 | 52.14398 | 20.69291 | 6872 ft | 277 kts | 227° |
| 2026-04-26 09:20 | 52.12882 | 20.67345 | 7597 ft | 280 kts | 225° |
| 2026-04-26 09:21 | 52.11347 | 20.65453 | 8266 ft | 282 kts | 224° |
| 2026-04-26 09:21 | 52.09768 | 20.63501 | 8962 ft | 283 kts | 224° |
| 2026-04-26 09:21 | 52.08226 | 20.61583 | 9623 ft | 285 kts | 225° |
| 2026-04-26 09:21 | 52.06660 | 20.59618 | 10242 ft | 288 kts | 225° |
| 2026-04-26 09:22 | 52.05041 | 20.57580 | 10639 ft | 298 kts | 225° |
| 2026-04-26 09:22 | 52.03373 | 20.55472 | 10918 ft | 313 kts | 226° |
| 2026-04-26 09:22 | 52.01615 | 20.53249 | 11180 ft | 327 kts | 225° |
| 2026-04-26 09:22 | 51.99808 | 20.50977 | 11583 ft | 335 kts | 226° |
| 2026-04-26 09:23 | 51.97953 | 20.48658 | 12127 ft | 339 kts | 226° |
| 2026-04-26 09:23 | 51.96063 | 20.46332 | 12616 ft | 347 kts | 223° |
| 2026-04-26 09:23 | 51.93850 | 20.44549 | 13053 ft | 367 kts | 206° |
| 2026-04-26 09:23 | 51.91315 | 20.43738 | 13531 ft | 380 kts | 193° |
| 2026-04-26 09:24 | 51.88643 | 20.43345 | 13965 ft | 388 kts | 191° |
| 2026-04-26 09:24 | 51.85947 | 20.43020 | 14339 ft | 394 kts | 191° |
| 2026-04-26 09:24 | 51.83183 | 20.42674 | 14763 ft | 398 kts | 192° |
| 2026-04-26 09:24 | 51.80424 | 20.42291 | 15159 ft | 403 kts | 192° |
| 2026-04-26 09:25 | 51.77625 | 20.41881 | 15557 ft | 408 kts | 193° |
| 2026-04-26 09:25 | 51.74786 | 20.41450 | 15986 ft | 411 kts | 193° |
| 2026-04-26 09:25 | 51.71905 | 20.41013 | 16359 ft | 416 kts | 193° |
| 2026-04-26 09:25 | 51.69042 | 20.40579 | 16807 ft | 417 kts | 193° |
| 2026-04-26 09:26 | 51.66184 | 20.40151 | 17285 ft | 418 kts | 194° |
| 2026-04-26 09:26 | 51.63253 | 20.39704 | 17693 ft | 420 kts | 194° |
| 2026-04-26 09:26 | 51.60354 | 20.39261 | 18021 ft | 425 kts | 194° |
| 2026-04-26 09:26 | 51.57404 | 20.38819 | 18382 ft | 429 kts | 194° |
| 2026-04-26 09:27 | 51.54427 | 20.38361 | 18705 ft | 433 kts | 194° |
| 2026-04-26 09:27 | 51.51425 | 20.37908 | 19071 ft | 436 kts | 194° |
| 2026-04-26 09:27 | 51.48368 | 20.37448 | 19481 ft | 438 kts | 194° |
| 2026-04-26 09:27 | 51.45330 | 20.36992 | 19866 ft | 441 kts | 194° |
| 2026-04-26 09:28 | 51.42270 | 20.36537 | 20256 ft | 443 kts | 195° |
| 2026-04-26 09:28 | 51.39233 | 20.36083 | 20658 ft | 444 kts | 194° |
| 2026-04-26 09:28 | 51.36141 | 20.35614 | 20972 ft | 448 kts | 195° |
| 2026-04-26 09:28 | 51.33034 | 20.35153 | 21339 ft | 450 kts | 195° |
| 2026-04-26 09:29 | 51.29922 | 20.34692 | 21703 ft | 452 kts | 194° |
| 2026-04-26 09:29 | 51.26758 | 20.34220 | 21977 ft | 456 kts | 194° |
| 2026-04-26 09:29 | 51.23641 | 20.33762 | 22368 ft | 457 kts | 194° |
| 2026-04-26 09:29 | 51.20454 | 20.33288 | 22741 ft | 459 kts | 194° |
| 2026-04-26 09:30 | 51.17295 | 20.32817 | 23038 ft | 462 kts | 194° |
| 2026-04-26 09:30 | 51.14048 | 20.32338 | 23371 ft | 464 kts | 194° |
| 2026-04-26 09:30 | 51.10859 | 20.31866 | 23684 ft | 467 kts | 194° |
| 2026-04-26 09:30 | 51.07613 | 20.31385 | 24026 ft | 469 kts | 194° |
| 2026-04-26 09:31 | 51.04372 | 20.30908 | 24355 ft | 470 kts | 194° |
| 2026-04-26 09:31 | 51.01120 | 20.30431 | 24679 ft | 472 kts | 194° |
| 2026-04-26 09:31 | 50.97855 | 20.29950 | 25002 ft | 474 kts | 194° |
| 2026-04-26 09:31 | 50.94589 | 20.29472 | 25326 ft | 476 kts | 194° |
| 2026-04-26 09:32 | 50.91281 | 20.28988 | 25646 ft | 478 kts | 194° |
| 2026-04-26 09:32 | 50.87967 | 20.28507 | 25961 ft | 479 kts | 194° |
| 2026-04-26 09:32 | 50.84664 | 20.28025 | 26293 ft | 479 kts | 194° |
| 2026-04-26 09:32 | 50.81314 | 20.27537 | 26602 ft | 479 kts | 194° |
| 2026-04-26 09:33 | 50.78007 | 20.27051 | 26855 ft | 481 kts | 195° |
| 2026-04-26 09:33 | 50.74696 | 20.26569 | 27128 ft | 482 kts | 194° |
| 2026-04-26 09:33 | 50.71328 | 20.26075 | 27351 ft | 485 kts | 194° |
| 2026-04-26 09:33 | 50.67994 | 20.25615 | 27597 ft | 489 kts | 192° |
| 2026-04-26 09:34 | 50.64529 | 20.25887 | 27832 ft | 505 kts | 176° |
| 2026-04-26 09:34 | 50.61146 | 20.27468 | 28084 ft | 515 kts | 159° |
| 2026-04-26 09:34 | 50.57927 | 20.29880 | 28369 ft | 517 kts | 155° |
| 2026-04-26 09:34 | 50.54711 | 20.32493 | 28599 ft | 520 kts | 154° |
| 2026-04-26 09:35 | 50.51489 | 20.35111 | 28830 ft | 521 kts | 154° |
| 2026-04-26 09:35 | 50.48258 | 20.37694 | 29050 ft | 523 kts | 155° |
| 2026-04-26 09:35 | 50.45033 | 20.40226 | 29318 ft | 524 kts | 155° |
| 2026-04-26 09:35 | 50.41751 | 20.42768 | 29572 ft | 525 kts | 155° |
| 2026-04-26 09:36 | 50.38508 | 20.45255 | 29785 ft | 527 kts | 156° |
| 2026-04-26 09:36 | 50.35210 | 20.47774 | 29996 ft | 529 kts | 156° |
| 2026-04-26 09:36 | 50.31881 | 20.50303 | 30273 ft | 529 kts | 156° |
| 2026-04-26 09:36 | 50.28605 | 20.52791 | 30518 ft | 530 kts | 156° |
| 2026-04-26 09:37 | 50.25294 | 20.55297 | 30731 ft | 532 kts | 156° |
| 2026-04-26 09:37 | 50.21985 | 20.57808 | 30948 ft | 533 kts | 156° |
| 2026-04-26 09:37 | 50.18620 | 20.60354 | 31180 ft | 534 kts | 156° |
| 2026-04-26 09:37 | 50.15307 | 20.62863 | 31458 ft | 534 kts | 156° |
| 2026-04-26 09:38 | 50.11959 | 20.65392 | 31829 ft | 531 kts | 157° |
| 2026-04-26 09:38 | 50.08658 | 20.67879 | 32166 ft | 529 kts | 157° |
| 2026-04-26 09:38 | 50.05358 | 20.70364 | 32483 ft | 527 kts | 157° |
| 2026-04-26 09:38 | 50.02068 | 20.72833 | 32798 ft | 525 kts | 157° |
| 2026-04-26 09:39 | 49.98887 | 20.75216 | 33102 ft | 524 kts | 157° |
| 2026-04-26 09:39 | 49.95613 | 20.77664 | 33390 ft | 522 kts | 157° |
| 2026-04-26 09:39 | 49.92371 | 20.80086 | 33601 ft | 523 kts | 157° |
| 2026-04-26 09:39 | 49.89063 | 20.82552 | 33811 ft | 523 kts | 157° |
| 2026-04-26 09:40 | 49.85815 | 20.84973 | 34016 ft | 523 kts | 157° |
| 2026-04-26 09:40 | 49.82519 | 20.87431 | 34242 ft | 522 kts | 157° |
| 2026-04-26 09:40 | 49.79278 | 20.89841 | 34435 ft | 522 kts | 158° |
| 2026-04-26 09:40 | 49.75993 | 20.92284 | 34656 ft | 521 kts | 158° |
| 2026-04-26 09:41 | 49.72730 | 20.94702 | 34852 ft | 520 kts | 158° |
| 2026-04-26 09:41 | 49.69474 | 20.97106 | 35007 ft | 520 kts | 158° |
| 2026-04-26 09:41 | 49.66246 | 20.99485 | 35090 ft | 521 kts | 158° |
| 2026-04-26 09:42 | 49.59688 | 21.04312 | 35090 ft | 522 kts | 158° |
| 2026-04-26 09:42 | 49.53184 | 21.09095 | 35081 ft | 519 kts | 158° |
| 2026-04-26 09:43 | 49.46714 | 21.13837 | 35075 ft | 518 kts | 158° |
| 2026-04-26 09:43 | 49.40219 | 21.18579 | 35074 ft | 518 kts | 158° |
| 2026-04-26 09:44 | 49.33709 | 21.23320 | 35076 ft | 516 kts | 158° |
| 2026-04-26 09:44 | 49.27189 | 21.28056 | 35078 ft | 515 kts | 158° |
| 2026-04-26 09:45 | 49.20754 | 21.32710 | 35083 ft | 515 kts | 158° |
| 2026-04-26 09:45 | 49.14271 | 21.37397 | 35077 ft | 514 kts | 158° |
| 2026-04-26 09:46 | 49.07784 | 21.42060 | 35070 ft | 514 kts | 158° |
| 2026-04-26 09:46 | 49.01279 | 21.46728 | 35076 ft | 513 kts | 158° |
| 2026-04-26 09:47 | 48.94855 | 21.51329 | 35073 ft | 512 kts | 158° |
| 2026-04-26 09:47 | 48.88401 | 21.55932 | 35077 ft | 512 kts | 158° |
| 2026-04-26 09:48 | 48.81970 | 21.60507 | 35072 ft | 511 kts | 158° |
| 2026-04-26 09:48 | 48.75493 | 21.65102 | 35071 ft | 512 kts | 159° |
| 2026-04-26 09:49 | 48.69081 | 21.69641 | 35074 ft | 511 kts | 159° |
| 2026-04-26 09:49 | 48.62634 | 21.74188 | 35082 ft | 510 kts | 159° |
| 2026-04-26 09:50 | 48.56217 | 21.78701 | 35078 ft | 510 kts | 159° |
| 2026-04-26 09:50 | 48.49742 | 21.83244 | 35085 ft | 510 kts | 159° |
| 2026-04-26 09:51 | 48.43333 | 21.87756 | 35085 ft | 512 kts | 156° |
| 2026-04-26 09:51 | 48.37186 | 21.93267 | 35080 ft | 516 kts | 146° |
| 2026-04-26 09:52 | 48.31702 | 22.00198 | 35084 ft | 517 kts | 135° |
| 2026-04-26 09:52 | 48.24543 | 22.12188 | 35078 ft | 517 kts | 131° |
| 2026-04-26 09:53 | 48.19779 | 22.20288 | 35078 ft | 518 kts | 131° |
| 2026-04-26 09:53 | 48.14990 | 22.28343 | 35075 ft | 518 kts | 131° |
| 2026-04-26 09:54 | 48.10195 | 22.36360 | 35069 ft | 519 kts | 131° |
| 2026-04-26 09:54 | 48.05411 | 22.44320 | 35065 ft | 519 kts | 131° |
| 2026-04-26 09:55 | 48.00565 | 22.52363 | 35061 ft | 519 kts | 131° |
| 2026-04-26 09:55 | 47.95755 | 22.60321 | 35056 ft | 519 kts | 131° |
| 2026-04-26 09:56 | 47.90892 | 22.68350 | 35052 ft | 520 kts | 132° |
| 2026-04-26 09:56 | 47.86076 | 22.76268 | 35045 ft | 520 kts | 132° |
| 2026-04-26 09:57 | 47.81202 | 22.84257 | 35044 ft | 520 kts | 131° |
| 2026-04-26 09:57 | 47.76371 | 22.92158 | 35038 ft | 518 kts | 132° |
| 2026-04-26 09:58 | 47.71503 | 23.00097 | 35036 ft | 518 kts | 132° |
| 2026-04-26 09:58 | 47.66642 | 23.07997 | 35032 ft | 516 kts | 132° |
| 2026-04-26 09:59 | 47.61812 | 23.15819 | 35029 ft | 517 kts | 132° |
| 2026-04-26 09:59 | 47.56959 | 23.23665 | 35022 ft | 516 kts | 132° |
| 2026-04-26 10:00 | 47.52119 | 23.31464 | 35023 ft | 515 kts | 132° |
| 2026-04-26 10:00 | 47.47251 | 23.39285 | 35019 ft | 515 kts | 132° |
| 2026-04-26 10:01 | 47.42432 | 23.47004 | 35018 ft | 514 kts | 132° |
| 2026-04-26 10:01 | 47.37585 | 23.54744 | 35003 ft | 514 kts | 132° |
| 2026-04-26 10:02 | 47.32739 | 23.62457 | 35054 ft | 512 kts | 133° |
| 2026-04-26 10:02 | 47.27922 | 23.70106 | 35014 ft | 511 kts | 133° |
| 2026-04-26 10:03 | 47.23080 | 23.77776 | 35006 ft | 511 kts | 133° |
| 2026-04-26 10:03 | 47.18230 | 23.85426 | 35001 ft | 509 kts | 134° |
| 2026-04-26 10:04 | 47.13409 | 23.93009 | 34994 ft | 508 kts | 133° |
| 2026-04-26 10:04 | 47.08592 | 24.00566 | 34993 ft | 507 kts | 133° |
| 2026-04-26 10:05 | 47.03757 | 24.08137 | 34989 ft | 507 kts | 133° |
| 2026-04-26 10:05 | 46.98938 | 24.15662 | 34983 ft | 507 kts | 134° |
| 2026-04-26 10:06 | 46.94126 | 24.23148 | 34976 ft | 507 kts | 134° |
| 2026-04-26 10:06 | 46.89301 | 24.30638 | 34965 ft | 505 kts | 134° |
| 2026-04-26 10:07 | 46.84479 | 24.38100 | 34952 ft | 506 kts | 134° |
| 2026-04-26 10:07 | 46.79651 | 24.45552 | 34949 ft | 506 kts | 134° |
| 2026-04-26 10:08 | 46.74833 | 24.52962 | 34946 ft | 504 kts | 134° |
| 2026-04-26 10:08 | 46.70029 | 24.60332 | 34939 ft | 504 kts | 134° |
| 2026-04-26 10:09 | 46.65196 | 24.67732 | 34936 ft | 503 kts | 135° |
| 2026-04-26 10:09 | 46.60372 | 24.75098 | 34940 ft | 503 kts | 135° |
| 2026-04-26 10:10 | 46.55565 | 24.82411 | 34937 ft | 503 kts | 135° |
| 2026-04-26 10:10 | 46.50726 | 24.89750 | 34937 ft | 503 kts | 135° |
| 2026-04-26 10:11 | 46.45968 | 24.97072 | 34931 ft | 502 kts | 132° |
| 2026-04-26 10:11 | 46.41368 | 25.04645 | 34945 ft | 502 kts | 131° |
| 2026-04-26 10:12 | 46.36753 | 25.12257 | 34944 ft | 501 kts | 132° |
| 2026-04-26 10:12 | 46.32156 | 25.19811 | 34942 ft | 501 kts | 132° |
| 2026-04-26 10:13 | 46.27530 | 25.27381 | 34941 ft | 501 kts | 132° |
| 2026-04-26 10:13 | 46.22937 | 25.34881 | 34944 ft | 500 kts | 132° |
| 2026-04-26 10:14 | 46.18317 | 25.42403 | 34937 ft | 499 kts | 132° |
| 2026-04-26 10:14 | 46.13712 | 25.49874 | 34933 ft | 500 kts | 132° |
| 2026-04-26 10:15 | 46.09130 | 25.57292 | 34931 ft | 500 kts | 132° |
| 2026-04-26 10:15 | 46.04504 | 25.64768 | 34931 ft | 498 kts | 132° |
| 2026-04-26 10:16 | 45.99873 | 25.72222 | 34936 ft | 498 kts | 133° |
| 2026-04-26 10:16 | 45.95285 | 25.79594 | 34927 ft | 496 kts | 133° |
| 2026-04-26 10:17 | 45.90699 | 25.86937 | 34924 ft | 496 kts | 133° |
| 2026-04-26 10:17 | 45.86100 | 25.94271 | 34917 ft | 495 kts | 133° |
| 2026-04-26 10:18 | 45.81498 | 26.01608 | 34917 ft | 495 kts | 133° |
| 2026-04-26 10:18 | 45.76895 | 26.08918 | 34916 ft | 495 kts | 133° |
| 2026-04-26 10:19 | 45.72254 | 26.16271 | 34895 ft | 498 kts | 133° |
| 2026-04-26 10:19 | 45.67634 | 26.23577 | 34903 ft | 499 kts | 133° |
| 2026-04-26 10:20 | 45.63753 | 26.29693 | 34910 ft | 499 kts | 133° |
| 2026-04-26 10:20 | 45.58315 | 26.38239 | 34913 ft | 499 kts | 133° |
| 2026-04-26 10:21 | 45.53651 | 26.45555 | 34918 ft | 497 kts | 133° |
| 2026-04-26 10:21 | 45.48998 | 26.52826 | 34913 ft | 498 kts | 133° |
| 2026-04-26 10:22 | 45.44314 | 26.60130 | 34914 ft | 497 kts | 133° |
| 2026-04-26 10:22 | 45.39667 | 26.67359 | 34903 ft | 495 kts | 134° |
| 2026-04-26 10:23 | 45.34996 | 26.74609 | 34897 ft | 495 kts | 134° |
| 2026-04-26 10:23 | 45.30357 | 26.81782 | 34890 ft | 494 kts | 134° |
| 2026-04-26 10:24 | 45.25727 | 26.88926 | 34885 ft | 493 kts | 134° |
| 2026-04-26 10:24 | 45.21101 | 26.96043 | 34871 ft | 493 kts | 134° |
| 2026-04-26 10:25 | 45.16450 | 27.03182 | 34865 ft | 491 kts | 134° |
| 2026-04-26 10:25 | 45.11842 | 27.10236 | 34858 ft | 491 kts | 134° |
| 2026-04-26 10:26 | 45.07230 | 27.17281 | 34851 ft | 488 kts | 134° |
| 2026-04-26 10:26 | 45.02598 | 27.24336 | 34859 ft | 488 kts | 134° |
| 2026-04-26 10:27 | 44.97987 | 27.31341 | 34849 ft | 487 kts | 134° |
| 2026-04-26 10:27 | 44.93388 | 27.38309 | 34851 ft | 487 kts | 134° |
| 2026-04-26 10:28 | 44.88755 | 27.45314 | 34856 ft | 487 kts | 134° |
| 2026-04-26 10:28 | 44.84161 | 27.52243 | 34855 ft | 486 kts | 134° |
| 2026-04-26 10:29 | 44.79561 | 27.59166 | 34864 ft | 485 kts | 134° |
| 2026-04-26 10:29 | 44.74967 | 27.66063 | 34860 ft | 484 kts | 135° |
| 2026-04-26 10:30 | 44.70343 | 27.72987 | 34860 ft | 484 kts | 135° |
| 2026-04-26 10:30 | 44.65737 | 27.79863 | 34858 ft | 484 kts | 135° |
| 2026-04-26 10:31 | 44.61136 | 27.86714 | 34861 ft | 484 kts | 135° |
| 2026-04-26 10:31 | 44.56537 | 27.93546 | 34864 ft | 483 kts | 135° |
| 2026-04-26 10:32 | 44.51911 | 28.00396 | 34865 ft | 483 kts | 135° |
| 2026-04-26 10:32 | 44.47303 | 28.07205 | 34864 ft | 483 kts | 135° |
| 2026-04-26 10:33 | 44.42686 | 28.14013 | 34870 ft | 482 kts | 135° |
| 2026-04-26 10:33 | 44.38092 | 28.20771 | 34868 ft | 482 kts | 135° |
| 2026-04-26 10:34 | 44.33453 | 28.27580 | 34870 ft | 482 kts | 135° |
| 2026-04-26 10:34 | 44.28845 | 28.34323 | 34867 ft | 481 kts | 135° |
| 2026-04-26 10:35 | 44.24242 | 28.41047 | 34868 ft | 482 kts | 135° |
| 2026-04-26 10:35 | 44.19593 | 28.47818 | 34869 ft | 482 kts | 135° |
| 2026-04-26 10:36 | 44.14978 | 28.54525 | 34871 ft | 482 kts | 135° |
| 2026-04-26 10:36 | 44.10340 | 28.61249 | 34871 ft | 482 kts | 135° |
| 2026-04-26 10:37 | 44.05724 | 28.67925 | 34873 ft | 481 kts | 136° |
| 2026-04-26 10:37 | 44.01086 | 28.74614 | 34875 ft | 481 kts | 136° |
| 2026-04-26 10:38 | 43.96449 | 28.81287 | 34879 ft | 481 kts | 136° |
| 2026-04-26 10:38 | 43.91829 | 28.87921 | 34881 ft | 480 kts | 136° |
| 2026-04-26 10:39 | 43.87185 | 28.94575 | 34881 ft | 481 kts | 136° |
| 2026-04-26 10:39 | 43.82512 | 29.01254 | 34884 ft | 480 kts | 136° |
| 2026-04-26 10:40 | 43.77877 | 29.07861 | 34889 ft | 480 kts | 136° |
| 2026-04-26 10:40 | 43.73237 | 29.14458 | 34897 ft | 479 kts | 135° |
| 2026-04-26 10:41 | 43.68722 | 29.21149 | 34907 ft | 480 kts | 134° |
| 2026-04-26 10:41 | 43.64223 | 29.27913 | 34911 ft | 480 kts | 134° |
| 2026-04-26 10:42 | 43.59694 | 29.34683 | 34913 ft | 480 kts | 134° |
| 2026-04-26 10:42 | 43.55174 | 29.41408 | 34916 ft | 479 kts | 134° |
| 2026-04-26 10:43 | 43.50655 | 29.48109 | 34919 ft | 478 kts | 134° |
| 2026-04-26 10:43 | 43.46141 | 29.54788 | 34918 ft | 479 kts | 134° |
| 2026-04-26 10:44 | 43.41589 | 29.61507 | 34921 ft | 478 kts | 134° |
| 2026-04-26 10:44 | 43.37083 | 29.68142 | 34922 ft | 478 kts | 134° |
| 2026-04-26 10:45 | 43.32555 | 29.74796 | 34921 ft | 477 kts | 135° |
| 2026-04-26 10:45 | 43.28015 | 29.81450 | 34924 ft | 477 kts | 135° |
| 2026-04-26 10:46 | 43.23506 | 29.88039 | 34926 ft | 477 kts | 134° |
| 2026-04-26 10:46 | 43.18962 | 29.94668 | 34930 ft | 476 kts | 134° |
| 2026-04-26 10:47 | 43.14442 | 30.01247 | 34931 ft | 476 kts | 134° |
| 2026-04-26 10:47 | 43.09916 | 30.07820 | 34931 ft | 475 kts | 134° |
| 2026-04-26 10:48 | 43.05381 | 30.14390 | 34933 ft | 475 kts | 134° |
| 2026-04-26 10:48 | 43.00865 | 30.20917 | 34935 ft | 474 kts | 134° |
| 2026-04-26 10:49 | 42.96344 | 30.27437 | 34934 ft | 474 kts | 134° |
| 2026-04-26 10:49 | 42.91814 | 30.33955 | 34936 ft | 474 kts | 134° |
| 2026-04-26 10:50 | 42.88050 | 30.39360 | 34939 ft | 473 kts | 134° |
| 2026-04-26 10:50 | 42.82744 | 30.46961 | 34947 ft | 473 kts | 134° |
| 2026-04-26 10:51 | 42.76503 | 30.57285 | 34942 ft | 475 kts | 121° |
| 2026-04-26 10:52 | 42.73728 | 30.65445 | 34946 ft | 474 kts | 108° |
| 2026-04-26 10:52 | 42.72308 | 30.74198 | 34953 ft | 472 kts | 97° |
| 2026-04-26 10:53 | 42.71450 | 30.83022 | 34951 ft | 472 kts | 96° |
| 2026-04-26 10:53 | 42.70589 | 30.91803 | 34951 ft | 472 kts | 97° |
| 2026-04-26 10:54 | 42.69236 | 31.05032 | 34951 ft | 472 kts | 97° |
| 2026-04-26 10:54 | 42.68315 | 31.13848 | 34952 ft | 471 kts | 97° |
| 2026-04-26 10:55 | 42.67392 | 31.22630 | 34954 ft | 471 kts | 97° |
| 2026-04-26 10:55 | 42.66461 | 31.31416 | 34954 ft | 471 kts | 97° |
| 2026-04-26 10:56 | 42.65527 | 31.40165 | 34955 ft | 471 kts | 97° |
| 2026-04-26 10:56 | 42.64581 | 31.48956 | 34960 ft | 470 kts | 97° |
| 2026-04-26 10:57 | 42.63631 | 31.57721 | 34962 ft | 470 kts | 97° |
| 2026-04-26 10:57 | 42.62680 | 31.66423 | 34964 ft | 470 kts | 97° |
| 2026-04-26 10:58 | 42.61715 | 31.75200 | 34965 ft | 471 kts | 97° |
| 2026-04-26 10:58 | 42.60746 | 31.83945 | 34966 ft | 470 kts | 97° |
| 2026-04-26 10:59 | 42.59766 | 31.92716 | 34967 ft | 469 kts | 97° |
| 2026-04-26 10:59 | 42.58783 | 32.01455 | 34966 ft | 468 kts | 97° |
| 2026-04-26 11:00 | 42.57818 | 32.10121 | 34968 ft | 468 kts | 97° |
| 2026-04-26 11:00 | 42.56825 | 32.18837 | 34968 ft | 468 kts | 97° |
| 2026-04-26 11:01 | 42.55827 | 32.27524 | 34966 ft | 468 kts | 98° |
| 2026-04-26 11:01 | 42.54816 | 32.36249 | 34964 ft | 468 kts | 97° |
| 2026-04-26 11:02 | 42.53804 | 32.44937 | 34963 ft | 468 kts | 98° |
| 2026-04-26 11:02 | 42.52789 | 32.53592 | 34963 ft | 468 kts | 97° |
| 2026-04-26 11:03 | 42.51770 | 32.62229 | 34964 ft | 468 kts | 98° |
| 2026-04-26 11:03 | 42.50739 | 32.70900 | 34965 ft | 467 kts | 98° |
| 2026-04-26 11:04 | 42.49702 | 32.79558 | 34966 ft | 467 kts | 98° |
| 2026-04-26 11:04 | 42.48656 | 32.88231 | 34968 ft | 466 kts | 98° |
| 2026-04-26 11:05 | 42.47611 | 32.96862 | 34969 ft | 466 kts | 98° |
| 2026-04-26 11:05 | 42.46560 | 33.05475 | 34969 ft | 465 kts | 98° |
| 2026-04-26 11:06 | 42.45495 | 33.14127 | 34970 ft | 465 kts | 98° |
| 2026-04-26 11:06 | 42.44435 | 33.22695 | 34967 ft | 465 kts | 98° |
| 2026-04-26 11:07 | 42.43360 | 33.31326 | 34962 ft | 466 kts | 98° |
| 2026-04-26 11:07 | 42.42276 | 33.39956 | 34957 ft | 465 kts | 98° |
| 2026-04-26 11:08 | 42.41197 | 33.48524 | 34955 ft | 465 kts | 98° |
| 2026-04-26 11:08 | 42.40108 | 33.57119 | 34954 ft | 463 kts | 98° |
| 2026-04-26 11:09 | 42.39014 | 33.65693 | 34953 ft | 463 kts | 99° |
| 2026-04-26 11:09 | 42.37917 | 33.74237 | 34950 ft | 463 kts | 99° |
| 2026-04-26 11:10 | 42.36812 | 33.82784 | 34950 ft | 463 kts | 99° |
| 2026-04-26 11:10 | 42.35698 | 33.91355 | 34950 ft | 463 kts | 99° |
| 2026-04-26 11:11 | 42.34592 | 33.99848 | 34950 ft | 463 kts | 99° |
| 2026-04-26 11:11 | 42.33470 | 34.08413 | 34950 ft | 462 kts | 99° |
| 2026-04-26 11:12 | 42.32344 | 34.16952 | 34950 ft | 462 kts | 99° |
| 2026-04-26 11:12 | 42.31214 | 34.25478 | 34950 ft | 462 kts | 99° |
| 2026-04-26 11:13 | 42.30076 | 34.34001 | 34951 ft | 461 kts | 99° |
| 2026-04-26 11:13 | 42.28940 | 34.42460 | 34952 ft | 461 kts | 99° |
| 2026-04-26 11:14 | 42.27787 | 34.50987 | 34951 ft | 461 kts | 99° |
| 2026-04-26 11:14 | 42.26635 | 34.59460 | 34953 ft | 461 kts | 99° |
| 2026-04-26 11:15 | 42.25476 | 34.67930 | 34953 ft | 460 kts | 100° |
| 2026-04-26 11:15 | 42.24312 | 34.76387 | 34953 ft | 460 kts | 100° |
| 2026-04-26 11:16 | 42.23145 | 34.84819 | 34952 ft | 460 kts | 100° |
| 2026-04-26 11:16 | 42.21961 | 34.93308 | 34954 ft | 459 kts | 100° |
| 2026-04-26 11:17 | 42.20782 | 35.01714 | 34954 ft | 459 kts | 100° |
| 2026-04-26 11:17 | 42.19588 | 35.10177 | 34954 ft | 459 kts | 100° |
| 2026-04-26 11:18 | 42.18399 | 35.18557 | 34952 ft | 460 kts | 100° |
| 2026-04-26 11:18 | 42.17195 | 35.26997 | 34951 ft | 459 kts | 100° |
| 2026-04-26 11:19 | 42.15987 | 35.35412 | 34950 ft | 459 kts | 100° |
| 2026-04-26 11:19 | 42.14764 | 35.43890 | 34947 ft | 459 kts | 100° |
| 2026-04-26 11:20 | 42.13760 | 35.50846 | 34945 ft | 459 kts | 100° |
| 2026-04-26 11:20 | 42.12329 | 35.60702 | 34941 ft | 459 kts | 101° |
| 2026-04-26 11:21 | 42.11093 | 35.69149 | 34938 ft | 459 kts | 101° |
| 2026-04-26 11:21 | 42.09856 | 35.77560 | 34938 ft | 459 kts | 101° |
| 2026-04-26 11:22 | 42.08614 | 35.85973 | 34937 ft | 459 kts | 101° |
| 2026-04-26 11:22 | 42.07369 | 35.94356 | 34937 ft | 458 kts | 101° |
| 2026-04-26 11:23 | 42.06122 | 36.02701 | 34938 ft | 457 kts | 101° |
| 2026-04-26 11:23 | 42.04863 | 36.11088 | 34939 ft | 457 kts | 101° |
| 2026-04-26 11:24 | 42.03602 | 36.19449 | 34937 ft | 458 kts | 101° |
| 2026-04-26 11:24 | 42.02332 | 36.27815 | 34936 ft | 459 kts | 101° |
| 2026-04-26 11:25 | 42.01056 | 36.36190 | 34938 ft | 459 kts | 101° |
| 2026-04-26 11:25 | 41.99771 | 36.44572 | 34936 ft | 459 kts | 101° |
| 2026-04-26 11:26 | 41.98479 | 36.52958 | 34937 ft | 459 kts | 101° |
| 2026-04-26 11:26 | 41.97187 | 36.61302 | 34930 ft | 458 kts | 101° |
| 2026-04-26 11:27 | 41.95888 | 36.69647 | 34928 ft | 458 kts | 102° |
| 2026-04-26 11:27 | 41.94576 | 36.78025 | 34934 ft | 458 kts | 102° |
| 2026-04-26 11:28 | 41.93264 | 36.86381 | 34931 ft | 459 kts | 102° |
| 2026-04-26 11:28 | 41.91937 | 36.94769 | 34935 ft | 459 kts | 102° |
| 2026-04-26 11:29 | 41.90768 | 37.03116 | 34935 ft | 459 kts | 98° |
| 2026-04-26 11:29 | 41.90266 | 37.11663 | 34939 ft | 460 kts | 92° |
| 2026-04-26 11:30 | 41.90162 | 37.18820 | 34932 ft | 460 kts | 91° |
| 2026-04-26 11:30 | 41.90027 | 37.28824 | 34935 ft | 460 kts | 91° |
| 2026-04-26 11:31 | 41.89897 | 37.37418 | 34940 ft | 461 kts | 91° |
| 2026-04-26 11:31 | 41.89759 | 37.45998 | 34933 ft | 461 kts | 91° |
| 2026-04-26 11:32 | 41.89611 | 37.54572 | 34935 ft | 461 kts | 91° |
| 2026-04-26 11:32 | 41.89458 | 37.63134 | 34939 ft | 462 kts | 91° |
| 2026-04-26 11:33 | 41.89296 | 37.71793 | 34937 ft | 462 kts | 92° |
| 2026-04-26 11:33 | 41.89130 | 37.80338 | 34937 ft | 462 kts | 92° |
| 2026-04-26 11:34 | 41.88952 | 37.89022 | 34943 ft | 462 kts | 92° |
| 2026-04-26 11:34 | 41.88771 | 37.97634 | 34935 ft | 463 kts | 92° |
| 2026-04-26 11:35 | 41.88583 | 38.06261 | 34941 ft | 463 kts | 92° |
| 2026-04-26 11:35 | 41.88423 | 38.13409 | 34935 ft | 463 kts | 93° |
| 2026-04-26 11:36 | 41.88189 | 38.23496 | 34939 ft | 464 kts | 93° |
| 2026-04-26 11:36 | 41.87982 | 38.32141 | 34936 ft | 464 kts | 93° |
| 2026-04-26 11:37 | 41.87767 | 38.40808 | 34936 ft | 464 kts | 93° |
| 2026-04-26 11:37 | 41.87547 | 38.49462 | 34938 ft | 465 kts | 93° |
| 2026-04-26 11:38 | 41.87321 | 38.58075 | 34938 ft | 465 kts | 93° |
| 2026-04-26 11:38 | 41.87088 | 38.66709 | 34943 ft | 466 kts | 94° |
| 2026-04-26 11:39 | 41.86846 | 38.75418 | 34933 ft | 466 kts | 94° |
| 2026-04-26 11:39 | 41.86599 | 38.84058 | 34937 ft | 466 kts | 94° |
| 2026-04-26 11:40 | 41.86345 | 38.92729 | 34936 ft | 467 kts | 94° |
| 2026-04-26 11:40 | 41.86083 | 39.01457 | 34939 ft | 467 kts | 94° |
| 2026-04-26 11:42 | 41.84974 | 39.36203 | 34939 ft | 468 kts | 94° |
| 2026-04-26 11:43 | 41.84678 | 39.44923 | 34939 ft | 469 kts | 94° |
| 2026-04-26 11:43 | 41.84376 | 39.53611 | 34937 ft | 469 kts | 94° |
| 2026-04-26 11:44 | 41.84069 | 39.62347 | 34527 ft | 473 kts | 95° |
| 2026-04-26 11:44 | 41.83912 | 39.66745 | 33683 ft | 477 kts | 95° |
| 2026-04-26 11:44 | 41.83754 | 39.71140 | 32929 ft | 477 kts | 95° |
| 2026-04-26 11:45 | 41.83589 | 39.75624 | 32210 ft | 477 kts | 95° |
| 2026-04-26 11:45 | 41.83428 | 39.79997 | 31638 ft | 472 kts | 95° |
| 2026-04-26 11:45 | 41.83266 | 39.84352 | 31212 ft | 466 kts | 95° |
| 2026-04-26 11:45 | 41.83104 | 39.88675 | 30758 ft | 460 kts | 95° |
| 2026-04-26 11:46 | 41.82943 | 39.92919 | 30296 ft | 455 kts | 95° |
| 2026-04-26 11:46 | 41.82783 | 39.97064 | 29829 ft | 450 kts | 95° |
| 2026-04-26 11:46 | 41.82621 | 40.01223 | 29340 ft | 446 kts | 95° |
| 2026-04-26 11:46 | 41.82459 | 40.05361 | 28853 ft | 442 kts | 95° |
| 2026-04-26 11:47 | 41.82295 | 40.09441 | 28376 ft | 438 kts | 95° |
| 2026-04-26 11:47 | 41.82133 | 40.13469 | 27926 ft | 434 kts | 95° |
| 2026-04-26 11:47 | 41.81972 | 40.17479 | 27470 ft | 430 kts | 95° |
| 2026-04-26 11:47 | 41.81811 | 40.21450 | 27016 ft | 427 kts | 95° |
| 2026-04-26 11:48 | 41.81647 | 40.25428 | 26567 ft | 423 kts | 95° |
| 2026-04-26 11:48 | 41.81487 | 40.29308 | 26120 ft | 420 kts | 95° |
| 2026-04-26 11:48 | 41.81325 | 40.33182 | 25682 ft | 416 kts | 95° |
| 2026-04-26 11:48 | 41.81161 | 40.37054 | 25266 ft | 412 kts | 95° |
| 2026-04-26 11:49 | 41.80999 | 40.40853 | 24854 ft | 409 kts | 95° |
| 2026-04-26 11:49 | 41.80838 | 40.44628 | 24419 ft | 406 kts | 95° |
| 2026-04-26 11:49 | 41.80677 | 40.48367 | 23988 ft | 403 kts | 95° |
| 2026-04-26 11:49 | 41.80514 | 40.52110 | 23538 ft | 401 kts | 95° |
| 2026-04-26 11:50 | 41.80353 | 40.55763 | 23104 ft | 398 kts | 95° |
| 2026-04-26 11:50 | 41.80191 | 40.59444 | 22653 ft | 397 kts | 95° |
| 2026-04-26 11:50 | 41.80086 | 40.63143 | 22184 ft | 396 kts | 89° |
| 2026-04-26 11:50 | 41.80374 | 40.66776 | 21747 ft | 395 kts | 80° |
| 2026-04-26 11:51 | 41.81095 | 40.70287 | 21314 ft | 393 kts | 72° |
| 2026-04-26 11:51 | 41.82022 | 40.73740 | 20849 ft | 392 kts | 70° |
| 2026-04-26 11:51 | 41.82977 | 40.77163 | 20401 ft | 390 kts | 70° |
| 2026-04-26 11:51 | 41.83920 | 40.80552 | 19983 ft | 387 kts | 70° |
| 2026-04-26 11:52 | 41.84847 | 40.83921 | 19575 ft | 385 kts | 70° |
| 2026-04-26 11:52 | 41.85454 | 40.86144 | 19300 ft | 383 kts | 70° |
| 2026-04-26 11:52 | 41.86655 | 40.90572 | 18740 ft | 380 kts | 70° |
| 2026-04-26 11:52 | 41.87552 | 40.93902 | 18321 ft | 378 kts | 70° |
| 2026-04-26 11:53 | 41.88441 | 40.97210 | 17905 ft | 376 kts | 70° |
| 2026-04-26 11:53 | 41.89315 | 41.00470 | 17476 ft | 375 kts | 70° |
| 2026-04-26 11:53 | 41.90191 | 41.03741 | 17031 ft | 373 kts | 70° |
| 2026-04-26 11:54 | 41.91925 | 41.10223 | 16157 ft | 368 kts | 70° |
| 2026-04-26 11:54 | 41.92787 | 41.13454 | 15739 ft | 366 kts | 70° |
| 2026-04-26 11:54 | 41.93644 | 41.16672 | 15351 ft | 365 kts | 70° |
| 2026-04-26 11:54 | 41.94486 | 41.19836 | 14896 ft | 364 kts | 70° |
| 2026-04-26 11:55 | 41.95331 | 41.23019 | 14485 ft | 362 kts | 70° |
| 2026-04-26 11:55 | 41.96176 | 41.26208 | 14003 ft | 359 kts | 70° |
| 2026-04-26 11:55 | 41.97007 | 41.29348 | 13678 ft | 357 kts | 70° |
| 2026-04-26 11:55 | 41.97841 | 41.32499 | 13234 ft | 355 kts | 70° |
| 2026-04-26 11:56 | 41.98661 | 41.35600 | 12834 ft | 353 kts | 70° |
| 2026-04-26 11:56 | 41.99472 | 41.38671 | 12425 ft | 350 kts | 71° |
| 2026-04-26 11:56 | 42.00285 | 41.41753 | 12035 ft | 347 kts | 71° |
| 2026-04-26 11:56 | 42.01080 | 41.44770 | 11685 ft | 345 kts | 71° |
| 2026-04-26 11:57 | 42.01879 | 41.47812 | 11286 ft | 342 kts | 71° |
| 2026-04-26 11:57 | 42.02656 | 41.50773 | 10887 ft | 339 kts | 71° |
| 2026-04-26 11:57 | 42.03435 | 41.53746 | 10519 ft | 336 kts | 71° |
| 2026-04-26 11:57 | 42.04208 | 41.56699 | 10165 ft | 331 kts | 72° |
| 2026-04-26 11:58 | 42.04956 | 41.59561 | 10052 ft | 318 kts | 72° |
| 2026-04-26 11:58 | 42.05661 | 41.62258 | 9967 ft | 305 kts | 72° |
| 2026-04-26 11:58 | 42.06357 | 41.64924 | 9705 ft | 298 kts | 72° |
| 2026-04-26 11:58 | 42.07039 | 41.67546 | 9332 ft | 296 kts | 74° |
| 2026-04-26 11:59 | 42.07611 | 41.70188 | 9021 ft | 292 kts | 79° |
| 2026-04-26 11:59 | 42.08012 | 41.72852 | 8699 ft | 288 kts | 82° |
| 2026-04-26 11:59 | 42.08357 | 41.75483 | 8366 ft | 285 kts | 82° |
| 2026-04-26 11:59 | 42.08696 | 41.78107 | 8072 ft | 280 kts | 82° |
| 2026-04-26 12:00 | 42.08876 | 41.79495 | 7916 ft | 277 kts | 82° |
| 2026-04-26 12:00 | 42.09138 | 41.81505 | 7682 ft | 275 kts | 82° |
| 2026-04-26 12:01 | 42.09467 | 41.84029 | 7381 ft | 272 kts | 81° |
| 2026-04-26 12:01 | 42.09790 | 41.86509 | 7035 ft | 269 kts | 81° |
| 2026-04-26 12:01 | 42.10109 | 41.88969 | 6731 ft | 265 kts | 81° |
| 2026-04-26 12:01 | 42.10427 | 41.91405 | 6444 ft | 262 kts | 80° |
| 2026-04-26 12:02 | 42.10739 | 41.93807 | 6151 ft | 259 kts | 80° |
| 2026-04-26 12:02 | 42.10943 | 41.95368 | 5957 ft | 258 kts | 80° |
| 2026-04-26 12:02 | 42.11351 | 41.98507 | 5536 ft | 256 kts | 80° |
| 2026-04-26 12:02 | 42.11659 | 42.00872 | 5217 ft | 254 kts | 79° |
| 2026-04-26 12:03 | 42.11960 | 42.03207 | 4898 ft | 253 kts | 79° |
| 2026-04-26 12:03 | 42.12262 | 42.05544 | 4577 ft | 251 kts | 79° |
| 2026-04-26 12:03 | 42.12558 | 42.07834 | 4277 ft | 249 kts | 79° |
| 2026-04-26 12:03 | 42.12850 | 42.10100 | 4049 ft | 243 kts | 79° |
| 2026-04-26 12:04 | 42.13134 | 42.12309 | 3982 ft | 238 kts | 79° |
| 2026-04-26 12:04 | 42.13417 | 42.14509 | 3809 ft | 239 kts | 79° |
| 2026-04-26 12:04 | 42.13698 | 42.16711 | 3504 ft | 238 kts | 79° |
| 2026-04-26 12:04 | 42.13976 | 42.18905 | 3208 ft | 237 kts | 79° |
| 2026-04-26 12:05 | 42.14251 | 42.21071 | 2974 ft | 231 kts | 79° |
| 2026-04-26 12:05 | 42.14515 | 42.23152 | 2743 ft | 226 kts | 79° |
| 2026-04-26 12:05 | 42.14777 | 42.25214 | 2556 ft | 216 kts | 78° |
| 2026-04-26 12:05 | 42.15054 | 42.27192 | 2548 ft | 214 kts | 78° |
| 2026-04-26 12:06 | 42.15317 | 42.29135 | 2601 ft | 207 kts | 79° |
| 2026-04-26 12:06 | 42.15551 | 42.30992 | 2418 ft | 197 kts | 79° |
| 2026-04-26 12:06 | 42.15770 | 42.32782 | 2155 ft | 190 kts | 79° |
| 2026-04-26 12:06 | 42.15978 | 42.34498 | 1896 ft | 182 kts | 79° |
| 2026-04-26 12:07 | 42.16175 | 42.36109 | 1646 ft | 167 kts | 80° |
| 2026-04-26 12:07 | 42.16358 | 42.37589 | 1460 ft | 150 kts | 80° |
| 2026-04-26 12:07 | 42.16522 | 42.38921 | 1268 ft | 144 kts | 80° |
| 2026-04-26 12:07 | 42.16682 | 42.40249 | 1102 ft | 143 kts | 80° |
| 2026-04-26 12:08 | 42.16843 | 42.41559 | 934 ft | 142 kts | 79° |
| 2026-04-26 12:08 | 42.17011 | 42.42862 | 750 ft | 141 kts | 80° |
| 2026-04-26 12:08 | 42.17173 | 42.44178 | 555 ft | 140 kts | 80° |
| 2026-04-26 12:08 | 42.17332 | 42.45460 | 381 ft | 140 kts | 80° |
| 2026-04-26 12:09 | 42.17494 | 42.46738 | 202 ft | 138 kts | 80° |
| 2026-04-26 12:09 | 42.17639 | 42.47918 | 167 ft | 110 kts | 82° |
| 2026-04-26 12:09 | 42.17738 | 42.48713 | 175 ft | 60 kts | 81° |
| 2026-04-26 12:09 | 42.17784 | 42.49099 | 176 ft | 26 kts | 78° |
| 2026-04-26 12:10 | 42.17825 | 42.49295 | 179 ft | 10 kts | 78° |
| 2026-04-26 12:10 | 42.17809 | 42.49316 | 179 ft | 7 kts | 233° |
| 2026-04-26 12:10 | 42.17802 | 42.49230 | 177 ft | 12 kts | 262° |
| 2026-04-26 12:10 | 42.17784 | 42.49080 | 176 ft | 19 kts | 259° |
| 2026-04-26 12:11 | 42.17759 | 42.48880 | 176 ft | 23 kts | 261° |
| 2026-04-26 12:11 | 42.17732 | 42.48665 | 174 ft | 23 kts | 260° |
| 2026-04-26 12:11 | 42.17705 | 42.48448 | 172 ft | 23 kts | 260° |
| 2026-04-26 12:11 | 42.17677 | 42.48230 | 170 ft | 23 kts | 260° |
| 2026-04-26 12:12 | 42.17650 | 42.48009 | 166 ft | 24 kts | 260° |
| 2026-04-26 12:12 | 42.17622 | 42.47789 | 165 ft | 23 kts | 261° |
| 2026-04-26 12:12 | 42.17598 | 42.47597 | 164 ft | 12 kts | 260° |
| 2026-04-26 12:12 | 42.17599 | 42.47524 | 163 ft | 11 kts | 290° |
| 2026-04-26 12:13 | 42.17685 | 42.47455 | 163 ft | 10 kts | 338° |
| 2026-04-26 12:13 | 42.17750 | 42.47422 | 164 ft | 9 kts | 340° |
| 2026-04-26 12:13 | 42.17809 | 42.47394 | 165 ft | 8 kts | 340° |
| 2026-04-26 12:13 | 42.17861 | 42.47363 | 166 ft | 9 kts | 329° |
| 2026-04-26 12:14 | 42.17915 | 42.47288 | 166 ft | 12 kts | 290° |
| 2026-04-26 12:14 | 42.17912 | 42.47173 | 166 ft | 12 kts | 259° |
| 2026-04-26 12:14 | 42.17896 | 42.47051 | 165 ft | 11 kts | 260° |
| 2026-04-26 12:14 | 42.17925 | 42.46969 | 164 ft | 10 kts | 329° |
| 2026-04-26 12:15 | 42.17987 | 42.46925 | 165 ft | 9 kts | 332° |
| 2026-04-26 12:15 | 42.18037 | 42.46884 | 165 ft | 8 kts | 309° |
| 2026-04-26 12:15 | 42.18040 | 42.46811 | 165 ft | 8 kts | 250° |
| 2026-04-26 12:15 | 42.18018 | 42.46730 | 164 ft | 10 kts | 250° |
| 2026-04-26 12:16 | 42.17992 | 42.46631 | 162 ft | 11 kts | 250° |
| 2026-04-26 12:16 | 42.17984 | 42.46545 | 162 ft | 9 kts | 294° |
| 2026-04-26 12:16 | 42.18030 | 42.46494 | 163 ft | 8 kts | 342° |
| 2026-04-26 12:16 | 42.18076 | 42.46476 | 163 ft | 5 kts | 347° |
| 2026-04-26 12:17 | 42.18104 | 42.46489 | 164 ft | 4 kts | 45° |
| 2026-04-26 12:17 | 42.18115 | 42.46522 | 164 ft | 0 kts | 72° |